sensor_id;sensor_type;location;lat;lon;timestamp;temperature;humidity
31731;DHT22;18310;55.586;12.286;2023-03-21T00:00:54;6.70;77.20
31731;DHT22;18310;55.586;12.286;2023-03-21T00:03:57;6.60;76.00
31731;DHT22;18310;55.586;12.286;2023-03-21T00:07:00;6.60;76.00
31731;DHT22;18310;55.586;12.286;2023-03-21T00:10:05;6.50;76.10
31731;DHT22;18310;55.586;12.286;2023-03-21T00:13:19;6.50;76.30
31731;DHT22;18310;55.586;12.286;2023-03-21T00:16:21;6.50;76.30
31731;DHT22;18310;55.586;12.286;2023-03-21T00:19:40;6.40;76.40
31731;DHT22;18310;55.586;12.286;2023-03-21T00:22:42;6.40;76.50
31731;DHT22;18310;55.586;12.286;2023-03-21T00:25:47;6.40;76.50
31731;DHT22;18310;55.586;12.286;2023-03-21T00:28:49;6.40;76.60
31731;DHT22;18310;55.586;12.286;2023-03-21T00:31:52;6.30;77.30
31731;DHT22;18310;55.586;12.286;2023-03-21T00:34:55;6.30;76.50
31731;DHT22;18310;55.586;12.286;2023-03-21T00:38:19;6.30;76.60
31731;DHT22;18310;55.586;12.286;2023-03-21T00:41:24;6.30;76.80
31731;DHT22;18310;55.586;12.286;2023-03-21T00:44:43;6.30;76.90
31731;DHT22;18310;55.586;12.286;2023-03-21T00:47:46;6.30;76.70
31731;DHT22;18310;55.586;12.286;2023-03-21T00:50:50;6.30;76.70
31731;DHT22;18310;55.586;12.286;2023-03-21T00:53:55;6.30;76.70
31731;DHT22;18310;55.586;12.286;2023-03-21T00:57:01;6.30;76.60
31731;DHT22;18310;55.586;12.286;2023-03-21T01:00:07;6.30;76.60
31731;DHT22;18310;55.586;12.286;2023-03-21T01:03:12;6.20;76.50
31731;DHT22;18310;55.586;12.286;2023-03-21T01:06:25;6.20;76.50
31731;DHT22;18310;55.586;12.286;2023-03-21T01:09:28;6.20;76.40
31731;DHT22;18310;55.586;12.286;2023-03-21T01:12:33;6.10;76.40
31731;DHT22;18310;55.586;12.286;2023-03-21T01:15:36;6.10;76.40
31731;DHT22;18310;55.586;12.286;2023-03-21T01:18:45;6.10;76.30
31731;DHT22;18310;55.586;12.286;2023-03-21T01:21:48;6.10;76.30
31731;DHT22;18310;55.586;12.286;2023-03-21T01:24:51;6.10;76.20
31731;DHT22;18310;55.586;12.286;2023-03-21T01:28:02;6.00;76.10
31731;DHT22;18310;55.586;12.286;2023-03-21T01:31:06;6.00;76.30
31731;DHT22;18310;55.586;12.286;2023-03-21T01:34:10;6.00;76.20
31731;DHT22;18310;55.586;12.286;2023-03-21T01:37:12;5.90;76.80
31731;DHT22;18310;55.586;12.286;2023-03-21T01:40:20;5.90;76.10
31731;DHT22;18310;55.586;12.286;2023-03-21T01:43:28;5.90;76.20
31731;DHT22;18310;55.586;12.286;2023-03-21T01:46:37;5.90;76.20
31731;DHT22;18310;55.586;12.286;2023-03-21T01:50:00;5.80;76.30
31731;DHT22;18310;55.586;12.286;2023-03-21T01:53:05;5.80;76.20
31731;DHT22;18310;55.586;12.286;2023-03-21T01:56:11;5.80;76.10
31731;DHT22;18310;55.586;12.286;2023-03-21T01:59:22;5.80;76.00
31731;DHT22;18310;55.586;12.286;2023-03-21T02:02:29;5.70;75.90
31731;DHT22;18310;55.586;12.286;2023-03-21T02:05:35;5.70;75.90
31731;DHT22;18310;55.586;12.286;2023-03-21T02:08:43;5.70;76.40
31731;DHT22;18310;55.586;12.286;2023-03-21T02:11:45;5.60;75.80
31731;DHT22;18310;55.586;12.286;2023-03-21T02:14:50;5.60;75.90
31731;DHT22;18310;55.586;12.286;2023-03-21T02:17:58;5.60;75.90
31731;DHT22;18310;55.586;12.286;2023-03-21T02:25:15;5.50;76.10
31731;DHT22;18310;55.586;12.286;2023-03-21T02:28:44;5.50;76.20
31731;DHT22;18310;55.586;12.286;2023-03-21T02:31:57;5.40;75.80
31731;DHT22;18310;55.586;12.286;2023-03-21T02:35:39;5.50;75.90
31731;DHT22;18310;55.586;12.286;2023-03-21T02:39:07;5.40;75.80
31731;DHT22;18310;55.586;12.286;2023-03-21T02:42:20;5.40;75.90
31731;DHT22;18310;55.586;12.286;2023-03-21T02:45:37;5.30;75.80
31731;DHT22;18310;55.586;12.286;2023-03-21T02:48:49;5.30;76.00
31731;DHT22;18310;55.586;12.286;2023-03-21T02:51:58;5.30;75.90
31731;DHT22;18310;55.586;12.286;2023-03-21T02:55:24;5.30;75.80
31731;DHT22;18310;55.586;12.286;2023-03-21T02:58:30;5.30;75.70
31731;DHT22;18310;55.586;12.286;2023-03-21T03:01:35;5.20;75.50
31731;DHT22;18310;55.586;12.286;2023-03-21T03:04:38;5.20;75.40
31731;DHT22;18310;55.586;12.286;2023-03-21T03:07:52;5.20;75.50
31731;DHT22;18310;55.586;12.286;2023-03-21T03:11:15;5.10;75.60
31731;DHT22;18310;55.586;12.286;2023-03-21T03:14:39;5.10;75.90
31731;DHT22;18310;55.586;12.286;2023-03-21T03:18:09;5.00;75.40
31731;DHT22;18310;55.586;12.286;2023-03-21T03:21:19;5.00;75.40
31731;DHT22;18310;55.586;12.286;2023-03-21T03:24:28;5.00;75.40
31731;DHT22;18310;55.586;12.286;2023-03-21T03:27:37;4.90;75.50
31731;DHT22;18310;55.586;12.286;2023-03-21T03:30:46;4.90;75.60
31731;DHT22;18310;55.586;12.286;2023-03-21T03:34:11;4.90;75.80
31731;DHT22;18310;55.586;12.286;2023-03-21T03:37:24;4.90;75.90
31731;DHT22;18310;55.586;12.286;2023-03-21T03:40:35;4.60;75.90
31731;DHT22;18310;55.586;12.286;2023-03-21T03:43:46;4.90;76.20
31731;DHT22;18310;55.586;12.286;2023-03-21T03:46:58;4.90;76.40
31731;DHT22;18310;55.586;12.286;2023-03-21T03:50:10;4.90;76.40
31731;DHT22;18310;55.586;12.286;2023-03-21T03:53:22;4.90;76.40
31731;DHT22;18310;55.586;12.286;2023-03-21T03:56:30;4.90;76.20
31731;DHT22;18310;55.586;12.286;2023-03-21T03:59:37;4.90;76.00
31731;DHT22;18310;55.586;12.286;2023-03-21T04:02:43;4.40;75.60
31731;DHT22;18310;55.586;12.286;2023-03-21T04:05:48;4.90;75.70
31731;DHT22;18310;55.586;12.286;2023-03-21T04:08:52;4.90;75.50
31731;DHT22;18310;55.586;12.286;2023-03-21T04:11:55;4.80;75.40
31731;DHT22;18310;55.586;12.286;2023-03-21T04:15:02;4.70;75.50
31731;DHT22;18310;55.586;12.286;2023-03-21T04:18:12;4.70;75.50
31731;DHT22;18310;55.586;12.286;2023-03-21T04:21:15;4.70;75.60
31731;DHT22;18310;55.586;12.286;2023-03-21T04:24:19;4.70;75.50
31731;DHT22;18310;55.586;12.286;2023-03-21T04:27:24;4.50;75.20
31731;DHT22;18310;55.586;12.286;2023-03-21T04:30:29;4.50;75.10
31731;DHT22;18310;55.586;12.286;2023-03-21T04:33:35;4.50;75.30
31731;DHT22;18310;55.586;12.286;2023-03-21T04:36:39;4.40;75.50
31731;DHT22;18310;55.586;12.286;2023-03-21T04:39:46;4.40;75.60
31731;DHT22;18310;55.586;12.286;2023-03-21T04:42:50;4.30;75.60
31731;DHT22;18310;55.586;12.286;2023-03-21T04:45:55;4.30;75.70
31731;DHT22;18310;55.586;12.286;2023-03-21T04:48:59;4.30;75.70
31731;DHT22;18310;55.586;12.286;2023-03-21T04:52:03;4.30;75.70
31731;DHT22;18310;55.586;12.286;2023-03-21T04:55:08;4.20;76.00
31731;DHT22;18310;55.586;12.286;2023-03-21T04:58:12;4.20;75.60
31731;DHT22;18310;55.586;12.286;2023-03-21T05:01:17;4.20;75.70
31731;DHT22;18310;55.586;12.286;2023-03-21T05:04:21;4.20;76.30
31731;DHT22;18310;55.586;12.286;2023-03-21T05:07:26;4.20;75.90
31731;DHT22;18310;55.586;12.286;2023-03-21T05:10:32;4.20;76.00
31731;DHT22;18310;55.586;12.286;2023-03-21T05:13:35;4.40;76.30
31731;DHT22;18310;55.586;12.286;2023-03-21T05:16:41;4.20;76.40
31731;DHT22;18310;55.586;12.286;2023-03-21T05:19:50;4.20;77.10
31731;DHT22;18310;55.586;12.286;2023-03-21T05:22:54;4.30;76.50
31731;DHT22;18310;55.586;12.286;2023-03-21T05:25:58;4.30;76.70
31731;DHT22;18310;55.586;12.286;2023-03-21T05:29:01;4.40;76.90
31731;DHT22;18310;55.586;12.286;2023-03-21T05:32:07;4.50;77.10
31731;DHT22;18310;55.586;12.286;2023-03-21T05:35:11;4.50;77.00
31731;DHT22;18310;55.586;12.286;2023-03-21T05:38:15;4.90;77.10
31731;DHT22;18310;55.586;12.286;2023-03-21T05:41:20;4.70;77.10
31731;DHT22;18310;55.586;12.286;2023-03-21T05:44:24;4.80;77.10
31731;DHT22;18310;55.586;12.286;2023-03-21T05:47:29;4.80;77.20
31731;DHT22;18310;55.586;12.286;2023-03-21T05:50:33;4.90;77.10
31731;DHT22;18310;55.586;12.286;2023-03-21T05:53:37;4.90;77.10
31731;DHT22;18310;55.586;12.286;2023-03-21T05:56:41;5.00;77.10
31731;DHT22;18310;55.586;12.286;2023-03-21T05:59:45;5.10;77.10
31731;DHT22;18310;55.586;12.286;2023-03-21T06:02:51;5.20;77.10
31731;DHT22;18310;55.586;12.286;2023-03-21T06:05:56;5.30;77.10
31731;DHT22;18310;55.586;12.286;2023-03-21T06:09:00;5.40;77.00
31731;DHT22;18310;55.586;12.286;2023-03-21T06:12:04;5.50;77.00
31731;DHT22;18310;55.586;12.286;2023-03-21T06:15:10;5.50;77.00
31731;DHT22;18310;55.586;12.286;2023-03-21T06:18:16;5.60;77.00
31731;DHT22;18310;55.586;12.286;2023-03-21T06:21:21;5.70;77.00
31731;DHT22;18310;55.586;12.286;2023-03-21T06:24:27;5.80;77.10
31731;DHT22;18310;55.586;12.286;2023-03-21T06:27:31;5.90;77.30
31731;DHT22;18310;55.586;12.286;2023-03-21T06:30:34;6.00;77.50
31731;DHT22;18310;55.586;12.286;2023-03-21T06:33:39;6.10;77.30
31731;DHT22;18310;55.586;12.286;2023-03-21T06:36:43;6.20;77.30
31731;DHT22;18310;55.586;12.286;2023-03-21T06:39:49;6.40;77.50
31731;DHT22;18310;55.586;12.286;2023-03-21T06:42:55;6.50;77.50
31731;DHT22;18310;55.586;12.286;2023-03-21T06:45:59;6.60;77.40
31731;DHT22;18310;55.586;12.286;2023-03-21T06:49:04;6.80;77.40
31731;DHT22;18310;55.586;12.286;2023-03-21T06:52:08;6.90;77.20
31731;DHT22;18310;55.586;12.286;2023-03-21T06:55:12;7.20;77.20
31731;DHT22;18310;55.586;12.286;2023-03-21T06:58:16;7.20;76.90
31731;DHT22;18310;55.586;12.286;2023-03-21T07:01:20;7.30;76.70
31731;DHT22;18310;55.586;12.286;2023-03-21T07:04:25;7.40;76.60
31731;DHT22;18310;55.586;12.286;2023-03-21T07:07:30;7.50;76.50
31731;DHT22;18310;55.586;12.286;2023-03-21T07:10:37;7.60;76.50
31731;DHT22;18310;55.586;12.286;2023-03-21T07:13:41;7.70;76.60
31731;DHT22;18310;55.586;12.286;2023-03-21T07:16:45;7.80;76.50
31731;DHT22;18310;55.586;12.286;2023-03-21T07:19:50;7.90;76.60
31731;DHT22;18310;55.586;12.286;2023-03-21T07:22:54;8.00;76.50
31731;DHT22;18310;55.586;12.286;2023-03-21T07:25:58;8.20;76.50
31731;DHT22;18310;55.586;12.286;2023-03-21T07:29:03;8.20;76.20
31731;DHT22;18310;55.586;12.286;2023-03-21T07:32:07;8.20;75.90
31731;DHT22;18310;55.586;12.286;2023-03-21T07:35:13;8.20;75.90
31731;DHT22;18310;55.586;12.286;2023-03-21T07:38:19;8.30;75.90
31731;DHT22;18310;55.586;12.286;2023-03-21T07:41:23;8.30;75.90
31731;DHT22;18310;55.586;12.286;2023-03-21T07:44:27;8.30;75.70
31731;DHT22;18310;55.586;12.286;2023-03-21T07:47:31;8.30;75.80
31731;DHT22;18310;55.586;12.286;2023-03-21T07:50:36;8.30;76.40
31731;DHT22;18310;55.586;12.286;2023-03-21T07:53:41;8.20;75.60
31731;DHT22;18310;55.586;12.286;2023-03-21T07:56:46;8.30;75.70
31731;DHT22;18310;55.586;12.286;2023-03-21T07:59:50;8.20;75.80
31731;DHT22;18310;55.586;12.286;2023-03-21T08:02:56;8.20;76.10
31731;DHT22;18310;55.586;12.286;2023-03-21T08:06:02;8.30;76.20
31731;DHT22;18310;55.586;12.286;2023-03-21T08:09:06;8.20;76.20
31731;DHT22;18310;55.586;12.286;2023-03-21T08:12:10;8.30;76.20
31731;DHT22;18310;55.586;12.286;2023-03-21T08:15:15;8.30;76.20
31731;DHT22;18310;55.586;12.286;2023-03-21T08:18:18;8.40;76.00
31731;DHT22;18310;55.586;12.286;2023-03-21T08:21:24;8.90;76.10
31731;DHT22;18310;55.586;12.286;2023-03-21T08:24:28;8.30;75.90
31731;DHT22;18310;55.586;12.286;2023-03-21T08:27:32;8.30;75.90
31731;DHT22;18310;55.586;12.286;2023-03-21T08:30:36;8.30;75.90
31731;DHT22;18310;55.586;12.286;2023-03-21T08:33:40;8.40;75.90
31731;DHT22;18310;55.586;12.286;2023-03-21T08:36:45;8.40;75.90
31731;DHT22;18310;55.586;12.286;2023-03-21T08:39:50;8.40;75.90
31731;DHT22;18310;55.586;12.286;2023-03-21T08:42:54;8.40;75.70
31731;DHT22;18310;55.586;12.286;2023-03-21T08:45:58;8.40;75.70
31731;DHT22;18310;55.586;12.286;2023-03-21T08:49:01;8.40;75.80
31731;DHT22;18310;55.586;12.286;2023-03-21T08:52:07;8.40;75.90
31731;DHT22;18310;55.586;12.286;2023-03-21T08:55:12;8.40;76.10
31731;DHT22;18310;55.586;12.286;2023-03-21T08:58:17;8.40;76.10
31731;DHT22;18310;55.586;12.286;2023-03-21T09:01:21;8.40;76.20
31731;DHT22;18310;55.586;12.286;2023-03-21T09:04:25;8.40;76.40
31731;DHT22;18310;55.586;12.286;2023-03-21T09:07:30;8.40;76.60
31731;DHT22;18310;55.586;12.286;2023-03-21T09:10:37;8.50;76.80
31731;DHT22;18310;55.586;12.286;2023-03-21T09:13:41;8.50;76.90
31731;DHT22;18310;55.586;12.286;2023-03-21T09:16:45;8.60;77.20
31731;DHT22;18310;55.586;12.286;2023-03-21T09:19:48;8.60;77.40
31731;DHT22;18310;55.586;12.286;2023-03-21T09:22:56;8.60;78.20
31731;DHT22;18310;55.586;12.286;2023-03-21T09:26:00;8.60;77.60
31731;DHT22;18310;55.586;12.286;2023-03-21T09:29:04;8.70;77.70
31731;DHT22;18310;55.586;12.286;2023-03-21T09:32:10;8.80;78.10
31731;DHT22;18310;55.586;12.286;2023-03-21T09:35:14;8.10;77.00
31731;DHT22;18310;55.586;12.286;2023-03-21T09:38:22;8.80;77.40
31731;DHT22;18310;55.586;12.286;2023-03-21T09:45:15;8.90;77.70
31731;DHT22;18310;55.586;12.286;2023-03-21T09:48:33;8.90;77.30
31731;DHT22;18310;55.586;12.286;2023-03-21T09:51:58;8.90;77.50
31731;DHT22;18310;55.586;12.286;2023-03-21T09:55:16;8.90;77.30
31731;DHT22;18310;55.586;12.286;2023-03-21T09:58:25;8.90;77.50
31731;DHT22;18310;55.586;12.286;2023-03-21T10:01:35;8.70;77.20
31731;DHT22;18310;55.586;12.286;2023-03-21T10:04:46;8.90;77.20
31731;DHT22;18310;55.586;12.286;2023-03-21T10:07:53;8.90;77.50
31731;DHT22;18310;55.586;12.286;2023-03-21T10:11:08;8.90;77.60
31731;DHT22;18310;55.586;12.286;2023-03-21T10:14:18;9.00;77.80
31731;DHT22;18310;55.586;12.286;2023-03-21T10:17:28;9.00;78.00
31731;DHT22;18310;55.586;12.286;2023-03-21T10:20:37;9.00;77.60
31731;DHT22;18310;55.586;12.286;2023-03-21T10:23:40;9.10;77.70
31731;DHT22;18310;55.586;12.286;2023-03-21T10:26:47;9.10;77.60
31731;DHT22;18310;55.586;12.286;2023-03-21T10:29:53;9.10;77.80
31731;DHT22;18310;55.586;12.286;2023-03-21T10:33:00;9.10;77.90
31731;DHT22;18310;55.586;12.286;2023-03-21T10:36:09;9.20;78.10
31731;DHT22;18310;55.586;12.286;2023-03-21T10:39:23;9.20;78.20
31731;DHT22;18310;55.586;12.286;2023-03-21T10:42:32;9.30;78.40
31731;DHT22;18310;55.586;12.286;2023-03-21T10:45:37;9.30;78.50
31731;DHT22;18310;55.586;12.286;2023-03-21T10:48:42;9.40;78.40
31731;DHT22;18310;55.586;12.286;2023-03-21T10:51:51;9.40;78.40
31731;DHT22;18310;55.586;12.286;2023-03-21T10:55:06;9.40;78.30
31731;DHT22;18310;55.586;12.286;2023-03-21T10:58:23;9.50;78.30
31731;DHT22;18310;55.586;12.286;2023-03-21T11:01:34;9.60;78.30
31731;DHT22;18310;55.586;12.286;2023-03-21T11:04:42;9.60;78.20
31731;DHT22;18310;55.586;12.286;2023-03-21T11:07:49;9.70;78.20
31731;DHT22;18310;55.586;12.286;2023-03-21T11:11:01;9.70;78.00
31731;DHT22;18310;55.586;12.286;2023-03-21T11:14:24;9.70;77.90
31731;DHT22;18310;55.586;12.286;2023-03-21T11:17:34;9.80;78.20
31731;DHT22;18310;55.586;12.286;2023-03-21T11:20:43;9.80;78.00
31731;DHT22;18310;55.586;12.286;2023-03-21T11:23:53;9.80;78.00
31731;DHT22;18310;55.586;12.286;2023-03-21T11:26:58;9.80;78.00
31731;DHT22;18310;55.586;12.286;2023-03-21T11:30:05;9.90;78.30
31731;DHT22;18310;55.586;12.286;2023-03-21T11:33:26;9.90;78.30
31731;DHT22;18310;55.586;12.286;2023-03-21T11:36:36;10.00;78.40
31731;DHT22;18310;55.586;12.286;2023-03-21T11:39:43;10.10;78.50
31731;DHT22;18310;55.586;12.286;2023-03-21T11:42:49;10.10;79.00
31731;DHT22;18310;55.586;12.286;2023-03-21T11:45:58;10.20;78.40
31731;DHT22;18310;55.586;12.286;2023-03-21T11:49:08;10.30;78.20
31731;DHT22;18310;55.586;12.286;2023-03-21T11:52:21;10.30;78.00
31731;DHT22;18310;55.586;12.286;2023-03-21T11:55:37;9.80;77.30
31731;DHT22;18310;55.586;12.286;2023-03-21T12:03:01;10.30;77.40
31731;DHT22;18310;55.586;12.286;2023-03-21T12:06:24;10.30;77.70
31731;DHT22;18310;55.586;12.286;2023-03-21T12:09:36;10.40;78.00
31731;DHT22;18310;55.586;12.286;2023-03-21T12:12:48;10.30;78.00
31731;DHT22;18310;55.586;12.286;2023-03-21T12:16:09;10.40;78.30
31731;DHT22;18310;55.586;12.286;2023-03-21T12:19:49;10.40;78.40
31731;DHT22;18310;55.586;12.286;2023-03-21T12:23:25;10.50;78.70
31731;DHT22;18310;55.586;12.286;2023-03-21T12:26:40;10.50;78.60
31731;DHT22;18310;55.586;12.286;2023-03-21T12:30:04;10.50;78.50
31731;DHT22;18310;55.586;12.286;2023-03-21T12:33:26;10.60;78.70
31731;DHT22;18310;55.586;12.286;2023-03-21T12:36:51;10.60;78.60
31731;DHT22;18310;55.586;12.286;2023-03-21T12:40:08;10.70;78.50
31731;DHT22;18310;55.586;12.286;2023-03-21T12:43:26;10.80;78.90
31731;DHT22;18310;55.586;12.286;2023-03-21T12:46:38;10.80;78.40
31731;DHT22;18310;55.586;12.286;2023-03-21T12:49:50;10.80;78.40
31731;DHT22;18310;55.586;12.286;2023-03-21T12:53:13;10.90;78.30
31731;DHT22;18310;55.586;12.286;2023-03-21T12:56:32;10.90;78.10
31731;DHT22;18310;55.586;12.286;2023-03-21T12:59:47;10.90;77.90
31731;DHT22;18310;55.586;12.286;2023-03-21T13:03:00;10.90;77.60
31731;DHT22;18310;55.586;12.286;2023-03-21T13:06:08;10.90;77.50
31731;DHT22;18310;55.586;12.286;2023-03-21T13:09:19;10.90;77.60
31731;DHT22;18310;55.586;12.286;2023-03-21T13:13:06;10.80;77.70
31731;DHT22;18310;55.586;12.286;2023-03-21T13:16:21;10.80;77.80
31731;DHT22;18310;55.586;12.286;2023-03-21T13:19:32;10.70;77.70
31731;DHT22;18310;55.586;12.286;2023-03-21T13:22:40;10.70;77.70
31731;DHT22;18310;55.586;12.286;2023-03-21T13:25:47;10.60;77.80
31731;DHT22;18310;55.586;12.286;2023-03-21T13:28:51;10.60;78.10
31731;DHT22;18310;55.586;12.286;2023-03-21T13:31:58;10.60;78.10
31731;DHT22;18310;55.586;12.286;2023-03-21T13:35:17;10.50;78.40
31731;DHT22;18310;55.586;12.286;2023-03-21T13:38:28;10.60;78.70
31731;DHT22;18310;55.586;12.286;2023-03-21T13:41:38;10.60;78.80
31731;DHT22;18310;55.586;12.286;2023-03-21T13:44:48;10.60;78.80
31731;DHT22;18310;55.586;12.286;2023-03-21T13:47:54;10.60;79.40
31731;DHT22;18310;55.586;12.286;2023-03-21T13:51:00;10.60;78.60
31731;DHT22;18310;55.586;12.286;2023-03-21T13:54:16;10.50;78.70
31731;DHT22;18310;55.586;12.286;2023-03-21T13:57:37;10.60;79.10
31731;DHT22;18310;55.586;12.286;2023-03-21T14:00:40;10.60;79.20
31731;DHT22;18310;55.586;12.286;2023-03-21T14:03:44;10.50;79.10
31731;DHT22;18310;55.586;12.286;2023-03-21T14:06:50;10.70;79.40
31731;DHT22;18310;55.586;12.286;2023-03-21T14:10:00;10.70;79.30
31731;DHT22;18310;55.586;12.286;2023-03-21T14:13:10;10.80;79.40
31731;DHT22;18310;55.586;12.286;2023-03-21T14:16:18;10.90;79.30
31731;DHT22;18310;55.586;12.286;2023-03-21T14:19:28;10.90;79.20
31731;DHT22;18310;55.586;12.286;2023-03-21T14:22:32;10.90;78.90
31731;DHT22;18310;55.586;12.286;2023-03-21T14:25:36;11.00;78.50
31731;DHT22;18310;55.586;12.286;2023-03-21T14:28:51;10.90;78.20
31731;DHT22;18310;55.586;12.286;2023-03-21T14:31:55;10.90;78.20
31731;DHT22;18310;55.586;12.286;2023-03-21T14:35:00;10.90;78.10
31731;DHT22;18310;55.586;12.286;2023-03-21T14:38:06;10.90;78.10
31731;DHT22;18310;55.586;12.286;2023-03-21T14:41:22;10.90;78.10
31731;DHT22;18310;55.586;12.286;2023-03-21T14:44:32;10.90;78.00
31731;DHT22;18310;55.586;12.286;2023-03-21T14:47:56;10.90;77.90
31731;DHT22;18310;55.586;12.286;2023-03-21T14:51:02;10.90;77.90
31731;DHT22;18310;55.586;12.286;2023-03-21T14:54:13;10.90;77.90
31731;DHT22;18310;55.586;12.286;2023-03-21T14:57:20;10.80;78.00
31731;DHT22;18310;55.586;12.286;2023-03-21T15:00:29;10.80;78.10
31731;DHT22;18310;55.586;12.286;2023-03-21T15:03:33;10.80;78.10
31731;DHT22;18310;55.586;12.286;2023-03-21T15:06:48;10.80;78.00
31731;DHT22;18310;55.586;12.286;2023-03-21T15:09:52;10.80;78.00
31731;DHT22;18310;55.586;12.286;2023-03-21T15:12:59;10.70;78.20
31731;DHT22;18310;55.586;12.286;2023-03-21T15:16:06;10.70;77.80
31731;DHT22;18310;55.586;12.286;2023-03-21T15:19:16;10.70;77.80
31731;DHT22;18310;55.586;12.286;2023-03-21T15:22:29;10.60;77.70
31731;DHT22;18310;55.586;12.286;2023-03-21T15:25:36;10.60;77.80
31731;DHT22;18310;55.586;12.286;2023-03-21T15:28:40;10.60;77.80
31731;DHT22;18310;55.586;12.286;2023-03-21T15:31:47;10.50;78.00
31731;DHT22;18310;55.586;12.286;2023-03-21T15:34:51;10.50;78.20
31731;DHT22;18310;55.586;12.286;2023-03-21T15:37:57;10.50;78.40
31731;DHT22;18310;55.586;12.286;2023-03-21T15:41:15;10.50;78.70
31731;DHT22;18310;55.586;12.286;2023-03-21T15:44:28;10.50;79.30
31731;DHT22;18310;55.586;12.286;2023-03-21T15:47:40;10.60;79.20
31731;DHT22;18310;55.586;12.286;2023-03-21T15:50:51;10.60;79.60
31731;DHT22;18310;55.586;12.286;2023-03-21T15:53:59;10.50;79.50
31731;DHT22;18310;55.586;12.286;2023-03-21T15:57:05;10.60;79.30
31731;DHT22;18310;55.586;12.286;2023-03-21T16:00:24;10.60;79.20
31731;DHT22;18310;55.586;12.286;2023-03-21T16:03:35;10.60;79.10
31731;DHT22;18310;55.586;12.286;2023-03-21T16:06:50;10.60;79.00
31731;DHT22;18310;55.586;12.286;2023-03-21T16:10:00;10.50;79.10
31731;DHT22;18310;55.586;12.286;2023-03-21T16:13:05;10.50;79.10
31731;DHT22;18310;55.586;12.286;2023-03-21T16:16:14;10.50;79.10
31731;DHT22;18310;55.586;12.286;2023-03-21T16:19:20;10.40;79.40
31731;DHT22;18310;55.586;12.286;2023-03-21T16:22:24;10.40;79.30
31731;DHT22;18310;55.586;12.286;2023-03-21T16:25:27;10.50;79.50
31731;DHT22;18310;55.586;12.286;2023-03-21T16:28:31;10.40;79.50
31731;DHT22;18310;55.586;12.286;2023-03-21T16:31:34;10.40;79.50
31731;DHT22;18310;55.586;12.286;2023-03-21T16:34:39;10.30;79.40
31731;DHT22;18310;55.586;12.286;2023-03-21T16:37:43;10.40;79.50
31731;DHT22;18310;55.586;12.286;2023-03-21T16:40:49;10.30;79.40
31731;DHT22;18310;55.586;12.286;2023-03-21T16:43:52;10.30;79.30
31731;DHT22;18310;55.586;12.286;2023-03-21T16:46:55;10.30;79.20
31731;DHT22;18310;55.586;12.286;2023-03-21T16:50:19;10.30;78.90
31731;DHT22;18310;55.586;12.286;2023-03-21T16:53:25;10.20;79.10
31731;DHT22;18310;55.586;12.286;2023-03-21T16:56:36;10.20;79.10
31731;DHT22;18310;55.586;12.286;2023-03-21T16:59:40;10.10;79.30
31731;DHT22;18310;55.586;12.286;2023-03-21T17:02:43;10.00;79.40
31731;DHT22;18310;55.586;12.286;2023-03-21T17:05:47;10.00;79.60
31731;DHT22;18310;55.586;12.286;2023-03-21T17:08:51;10.00;79.70
31731;DHT22;18310;55.586;12.286;2023-03-21T17:11:55;10.00;79.80
31731;DHT22;18310;55.586;12.286;2023-03-21T17:14:57;10.00;79.90
31731;DHT22;18310;55.586;12.286;2023-03-21T17:18:00;10.10;79.90
31731;DHT22;18310;55.586;12.286;2023-03-21T17:21:10;10.00;79.90
31731;DHT22;18310;55.586;12.286;2023-03-21T17:24:14;10.00;80.10
31731;DHT22;18310;55.586;12.286;2023-03-21T17:27:17;10.00;80.10
31731;DHT22;18310;55.586;12.286;2023-03-21T17:30:22;10.00;80.20
31731;DHT22;18310;55.586;12.286;2023-03-21T17:33:27;10.00;80.40
31731;DHT22;18310;55.586;12.286;2023-03-21T17:36:33;10.10;80.40
31731;DHT22;18310;55.586;12.286;2023-03-21T17:39:38;10.10;80.50
31731;DHT22;18310;55.586;12.286;2023-03-21T17:42:43;10.10;80.40
31731;DHT22;18310;55.586;12.286;2023-03-21T17:45:46;10.10;80.40
31731;DHT22;18310;55.586;12.286;2023-03-21T17:48:50;10.00;80.30
31731;DHT22;18310;55.586;12.286;2023-03-21T17:51:54;10.10;80.30
31731;DHT22;18310;55.586;12.286;2023-03-21T17:54:57;10.10;80.40
31731;DHT22;18310;55.586;12.286;2023-03-21T17:58:01;10.20;81.20
31731;DHT22;18310;55.586;12.286;2023-03-21T18:01:06;10.10;80.30
31731;DHT22;18310;55.586;12.286;2023-03-21T18:04:09;10.10;80.30
31731;DHT22;18310;55.586;12.286;2023-03-21T18:07:14;10.10;80.30
31731;DHT22;18310;55.586;12.286;2023-03-21T18:10:38;10.20;80.30
31731;DHT22;18310;55.586;12.286;2023-03-21T18:13:43;10.10;80.20
31731;DHT22;18310;55.586;12.286;2023-03-21T18:16:46;10.10;80.40
31731;DHT22;18310;55.586;12.286;2023-03-21T18:19:51;10.10;80.60
31731;DHT22;18310;55.586;12.286;2023-03-21T18:22:55;10.20;80.80
31731;DHT22;18310;55.586;12.286;2023-03-21T18:25:58;10.20;80.90
31731;DHT22;18310;55.586;12.286;2023-03-21T18:29:01;10.20;80.90
31731;DHT22;18310;55.586;12.286;2023-03-21T18:32:24;10.30;81.00
31731;DHT22;18310;55.586;12.286;2023-03-21T18:35:27;10.30;81.10
31731;DHT22;18310;55.586;12.286;2023-03-21T18:38:33;10.40;81.20
31731;DHT22;18310;55.586;12.286;2023-03-21T18:41:35;10.40;81.20
31731;DHT22;18310;55.586;12.286;2023-03-21T18:44:39;10.40;81.30
31731;DHT22;18310;55.586;12.286;2023-03-21T18:47:46;10.50;81.30
31731;DHT22;18310;55.586;12.286;2023-03-21T18:50:49;10.50;81.30
31731;DHT22;18310;55.586;12.286;2023-03-21T18:53:53;10.60;81.30
31731;DHT22;18310;55.586;12.286;2023-03-21T18:56:56;10.70;81.30
31731;DHT22;18310;55.586;12.286;2023-03-21T19:00:19;10.70;81.20
31731;DHT22;18310;55.586;12.286;2023-03-21T19:03:24;10.70;81.20
31731;DHT22;18310;55.586;12.286;2023-03-21T19:06:37;10.80;81.20
31731;DHT22;18310;55.586;12.286;2023-03-21T19:09:43;10.80;81.10
31731;DHT22;18310;55.586;12.286;2023-03-21T19:13:07;10.80;81.10
31731;DHT22;18310;55.586;12.286;2023-03-21T19:16:09;10.90;81.10
31731;DHT22;18310;55.586;12.286;2023-03-21T19:19:12;10.90;81.10
31731;DHT22;18310;55.586;12.286;2023-03-21T19:22:18;11.00;81.10
31731;DHT22;18310;55.586;12.286;2023-03-21T19:25:23;11.00;81.00
31731;DHT22;18310;55.586;12.286;2023-03-21T19:28:26;11.00;80.90
31731;DHT22;18310;55.586;12.286;2023-03-21T19:31:28;11.00;80.80
31731;DHT22;18310;55.586;12.286;2023-03-21T19:34:32;11.10;80.70
31731;DHT22;18310;55.586;12.286;2023-03-21T19:37:35;11.10;80.60
31731;DHT22;18310;55.586;12.286;2023-03-21T19:40:40;11.10;80.60
31731;DHT22;18310;55.586;12.286;2023-03-21T19:43:44;11.10;80.60
31731;DHT22;18310;55.586;12.286;2023-03-21T19:46:55;11.10;80.50
31731;DHT22;18310;55.586;12.286;2023-03-21T19:49:58;11.10;80.50
31731;DHT22;18310;55.586;12.286;2023-03-21T19:53:21;11.10;80.50